sim
Sign-in with your pilot id or email,
or register
Callsign
Passwort

Schedule Details

Flight Number: DLH1844 (1)
Departure: Munich Airport (EDDM) at 11:00
Arrival: Rome Leonardo da Vinci Fiumicino Airport (LIRF) at 12:30
Route: Lufthansa Passenger Schedule. Enter filed route here before submitting Pirep.

Weather Information
Getting current METAR information for EDDM 262150Z 23016KT 9999 OVC022 07/03 Q1002 NOSIG
Getting current METAR information for LIRF 262150Z 02007KT 9999 SCT040 13/12 Q1003 RERA TEMPO SHRA

Schedule Frequency

Route Map